• Join FlightAware (Why Join?)
  • Login
  • US Flag 
10:59PM EST


 

Airport Tracker/Info


-or-


 

Live Flight TrackerFlight Track Log ✈ UPS51 ✈ 11-May-2012 ✈ RKSI / ICN - PANC

Flight Track Log - Related Links

Times and Time Zones

All times are in EDT time to prevent confusion due to time zone crossing. See the UPS51 flight status page for this flight to view local times or setup timezone preferences in your user account.

Time Position Orientation Groundspeed Altitude Reporting Facility
EDT Latitude Longitude Course Direction KTS MPH feet Rate Location/Type
01:15PM 47.4167 161.0500 55° Northeast 519 597 31,000  Level Anchorage Center
01:17PM 47.5500 161.3333 53° Northeast 522 601 31,000  Level Anchorage Center
01:18PM 47.6333 161.5000 55° Northeast 522 601 31,000  Level Anchorage Center
01:29PM 48.5333 163.4500 56° Northeast 514 592 31,000  Level Anchorage Center
01:43PM 49.6000 165.9833 56° Northeast 522 601 31,000  Level Anchorage Center
01:45PM 49.7000 166.2167 58° Northeast 520 598 31,000  Level Anchorage Center
01:57PM 50.6500 168.7000 60° Northeast 526 605 31,000  Level Anchorage Center
02:02PM 50.9833 169.6167 61° Northeast 520 598 31,000  Level Anchorage Center
02:07PM 51.3167 170.5833 64° Northeast 510 587 31,000  Level Anchorage Center
02:08PM 51.3833 170.8000 64° Northeast 510 587 31,000  Level Anchorage Center
02:09PM 51.4333 170.9667 56° Northeast 500 575 31,000  Level Anchorage Center
02:10PM 51.5167 171.1667 56° Northeast 500 575 31,000  Level Anchorage Center
02:11PM 51.6000 171.3667 54° Northeast 490 564 31,000  Level Anchorage Center
02:12PM 51.6667 171.5167 56° Northeast 500 575 31,000  Level Anchorage Center
02:13PM 51.7500 171.7167 57° Northeast 500 575 31,000  Level Anchorage Center
02:14PM 51.8167 171.8833 56° Northeast 500 575 31,000  Level Anchorage Center
02:15PM 51.9000 172.0833 51° Northeast 500 575 31,000  Level Anchorage Center
02:16PM 51.9833 172.2500 56° Northeast 500 575 31,000  Level Anchorage Center
02:17PM 52.0667 172.4500 56° Northeast 510 587 31,000  Level Anchorage Center
02:18PM 52.1500 172.6500 57° Northeast 500 575 31,000  Level Anchorage Center
02:19PM 52.2167 172.8167 56° Northeast 500 575 31,000  Level Anchorage Center
02:20PM 52.3000 173.0167 57° Northeast 490 564 31,000  Level Anchorage Center
02:21PM 52.3667 173.1833 56° Northeast 500 575 31,000  Level Anchorage Center
02:22PM 52.4500 173.3833 57° Northeast 500 575 31,000  Level Anchorage Center
02:23PM 52.5167 173.5500 58° Northeast 490 564 31,000  Level Anchorage Center
02:24PM 52.6000 173.7667 57° Northeast 490 564 31,000  Level Anchorage Center
02:25PM 52.6667 173.9333 57° Northeast 500 575 31,000  Level Anchorage Center
02:28PM 52.9000 174.5333 56° Northeast 490 564 31,000  Level Anchorage Center
02:29PM 52.9667 174.7000 61° Northeast 490 564 31,000  Level Anchorage Center
02:30PM 53.0333 174.9000 59° Northeast 500 575 31,000  Level Anchorage Center
02:31PM 53.1000 175.0833 55° Northeast 490 564 31,000  Level Anchorage Center
02:32PM 53.1833 175.2833 59° Northeast 500 575 31,000  Level Anchorage Center
02:33PM 53.2500 175.4667 61° Northeast 490 564 31,000  Level Anchorage Center
02:34PM 53.3167 175.6667 59° Northeast 490 564 31,000  Level Anchorage Center
02:35PM 53.3833 175.8500 61° Northeast 490 564 31,000  Level Anchorage Center
02:36PM 53.4500 176.0500 57° Northeast 490 564 31,000  Level Anchorage Center
02:37PM 53.5333 176.2667 56° Northeast 490 564 31,000  Level Anchorage Center
02:38PM 53.6000 176.4333 62° Northeast 480 552 31,000  Level Anchorage Center
02:39PM 53.6667 176.6500 56° Northeast 480 552 31,000  Level Anchorage Center
02:40PM 53.7333 176.8167 62° Northeast 480 552 31,000  Level Anchorage Center
02:41PM 53.8000 177.0333 63° Northeast 470 541 31,000  Level Anchorage Center
02:42PM 53.8500 177.2000 57° Northeast 470 541 31,000  Level Anchorage Center
02:43PM 53.9333 177.4167 60° Northeast 470 541 31,000  Level Anchorage Center
02:44PM 54.0000 177.6167 63° Northeast 470 541 31,000  Level Anchorage Center
02:45PM 54.0500 177.7833 57° Northeast 470 541 31,000  Level Anchorage Center
02:46PM 54.1333 178.0000 65° Northeast 480 552 31,000  Level Anchorage Center
02:47PM 54.1833 178.1833 63° Northeast 480 552 31,000  Level Anchorage Center
02:48PM 54.2333 178.3500 60° Northeast 480 552 31,000  Level Anchorage Center
02:53PM 54.5667 179.3667 61° Northeast 482 555 31,000  Level Anchorage Center
03:03PM 55.2000 -178.5333 64° Northeast 486 559 31,000  Level Anchorage Center
03:07PM 55.4000 -177.8000 65° Northeast 482 555 31,000  Level Anchorage Center
03:14PM 55.8500 -176.0667 66° East 470 541 31,000  Level Anchorage Center
03:20PM 56.1667 -174.7500 67° East 480 552 31,000  Level Anchorage Center
03:21PM 56.2167 -174.5333 67° East 480 552 31,000  Level Anchorage Center
03:22PM 56.2667 -174.3167 69° East 480 552 31,000  Level Anchorage Center
03:23PM 56.3167 -174.0833 61° Northeast 480 552 31,000  Level Anchorage Center
03:24PM 56.3833 -173.8667 69° East 490 564 31,000  Level Anchorage Center
03:25PM 56.4333 -173.6333 67° East 490 564 31,000  Level Anchorage Center
03:26PM 56.4833 -173.4167 69° East 470 541 31,000  Level Anchorage Center
03:27PM 56.5333 -173.1833 67° East 470 541 31,000  Level Anchorage Center
03:28PM 56.5833 -172.9667 67° East 470 541 31,000  Level Anchorage Center
03:29PM 56.6333 -172.7500 69° East 470 541 31,000  Level Anchorage Center
03:30PM 56.6833 -172.5167 67° East 470 541 31,000  Level Anchorage Center
03:31PM 56.7333 -172.3000 69° East 480 552 31,000  Level Anchorage Center
03:32PM 56.7833 -172.0667 75° East 480 552 31,000  Level Anchorage Center
03:33PM 56.8167 -171.8333 69° East 470 541 31,000  Level Anchorage Center
03:34PM 56.8667 -171.6000 68° East 480 552 31,000  Level Anchorage Center
03:35PM 56.9167 -171.3667 68° East 480 552 31,000  Level Anchorage Center
03:36PM 56.9667 -171.1333 68° East 480 552 31,000  Level Anchorage Center
03:37PM 57.0167 -170.9000 68° East 490 564 31,000  Level Anchorage Center
03:38PM 57.0667 -170.6667 70° East 490 564 31,000  Level Anchorage Center
03:39PM 57.1167 -170.4167 71° East 500 575 31,000  Level Anchorage Center
03:43PM 57.2500 -169.7000 70° East 490 564 31,000  Level Anchorage Center
03:44PM 57.3000 -169.4500 68° East 490 564 31,000  Level Anchorage Center
03:45PM 57.3500 -169.2167 70° East 500 575 31,000  Level Anchorage Center
03:46PM 57.4000 -168.9667 68° East 500 575 31,000  Level Anchorage Center
03:47PM 57.4500 -168.7333 76° East 490 564 31,000  Level Anchorage Center
03:48PM 57.4833 -168.4833 69° East 490 564 31,000  Level Anchorage Center
03:49PM 57.5333 -168.2333 68° East 490 564 31,000  Level Anchorage Center
03:50PM 57.5833 -168.0000 69° East 490 564 31,000  Level Anchorage Center
03:51PM 57.6333 -167.7500 76° East 500 575 31,000  Level Anchorage Center
03:52PM 57.6667 -167.5000 69° East 500 575 31,000  Level Anchorage Center
03:53PM 57.7167 -167.2500 76° East 500 575 31,000  Level Anchorage Center
03:54PM 57.7500 -167.0000 69° East 500 575 31,000  Level Anchorage Center
03:55PM 57.8000 -166.7500 76° East 490 564 31,000  Level Anchorage Center
03:56PM 57.8333 -166.5000 68° East 480 552 31,000  Level Anchorage Center
03:57PM 57.8833 -166.2667 76° East 490 564 31,000  Level Anchorage Center
03:58PM 57.9167 -166.0167 68° East 490 564 31,000  Level Anchorage Center
03:59PM 57.9667 -165.7833 76° East 510 587 31,000  Level Anchorage Center
04:00PM 58.0000 -165.5333 76° East 500 575 31,000  Level Anchorage Center
04:01PM 58.0333 -165.2833 69° East 490 564 31,000  Level Anchorage Center
04:02PM 58.0833 -165.0333 68° East 490 564 31,000  Level Anchorage Center
04:03PM 58.1333 -164.8000 69° East 490 564 31,000  Level Anchorage Center
04:04PM 58.1833 -164.5500 69° East 490 564 31,000  Level Anchorage Center
04:05PM 58.2333 -164.3000 69° East 490 564 31,000  Level Anchorage Center
04:06PM 58.2833 -164.0500 68° East 490 564 31,000  Level Anchorage Center
04:07PM 58.3333 -163.8167 76° East 490 564 31,000  Level Anchorage Center
04:08PM 58.3667 -163.5667 67° East 490 564 31,000  Level Anchorage Center
04:09PM 58.4333 -163.2667 72° East 490 564 31,000  Level Anchorage Center
04:10PM 58.4667 -163.0667 72° East 490 564 31,000  Level Anchorage Center
04:11PM 58.5167 -162.7667 69° East 490 564 31,000  Level Anchorage Center
04:12PM 58.5667 -162.5167 73° East 490 564 31,000  Level Anchorage Center
04:13PM 58.6000 -162.3000 69° East 480 552 31,000  Level Anchorage Center
04:14PM 58.6500 -162.0500 59° Northeast 470 541 31,000  Level Anchorage Center
04:15PM 58.7167 -161.8333 59° Northeast 470 541 31,000  Level Anchorage Center
04:16PM 58.7833 -161.6167 61° Northeast 480 552 31,000  Level Anchorage Center
04:17PM 58.8500 -161.3833 61° Northeast 470 541 31,000  Level Anchorage Center
04:18PM 58.9167 -161.1500 61° Northeast 490 564 31,000  Level Anchorage Center
04:19PM 58.9833 -160.9167 61° Northeast 480 552 31,000  Level Anchorage Center
04:20PM 59.0500 -160.6833 67° East 490 564 31,000  Level Anchorage Center
04:21PM 59.1000 -160.4500 61° Northeast 480 552 31,000  Level Anchorage Center
04:22PM 59.1667 -160.2167 61° Northeast 490 564 31,000  Level Anchorage Center
04:23PM 59.2333 -159.9833 61° Northeast 490 564 31,000  Level Anchorage Center
04:24PM 59.3000 -159.7500 68° East 480 552 31,000  Level Anchorage Center
04:25PM 59.3500 -159.5000 61° Northeast 490 564 31,000  Level Anchorage Center
04:26PM 59.4167 -159.2667 61° Northeast 470 541 31,000  Level Anchorage Center
04:27PM 59.4833 -159.0333 68° East 480 552 31,000  Level Anchorage Center
04:28PM 59.5333 -158.7833 62° Northeast 480 552 31,000  Level Anchorage Center
04:29PM 59.6000 -158.5333 60° Northeast 490 564 31,000  Level Anchorage Center
04:30PM 59.6667 -158.3000 68° East 490 564 31,000  Level Anchorage Center
04:31PM 59.7167 -158.0500 62° Northeast 490 564 31,000  Level Anchorage Center
04:32PM 59.7833 -157.8000 60° Northeast 490 564 31,000  Level Anchorage Center
04:33PM 59.8500 -157.5667 68° East 480 552 31,000  Level Anchorage Center
04:34PM 59.9000 -157.3167 62° Northeast 480 552 31,000  Level Anchorage Center
04:35PM 59.9667 -157.0667 68° East 480 552 31,000  Level Anchorage Center
04:36PM 60.0167 -156.8167 63° Northeast 480 552 31,000  Level Anchorage Center
04:37PM 60.0833 -156.5500 67° East 480 552 31,000  Level Anchorage Center
04:38PM 60.1333 -156.3167 68° East 480 552 31,000  Level Anchorage Center
04:39PM 60.1833 -156.0667 62° Northeast 480 552 31,000  Level Anchorage Center
04:40PM 60.2500 -155.8167 68° East 490 564 31,000  Level Anchorage Center
04:41PM 60.3000 -155.5667 76° East 480 552 31,000  Level Anchorage Center
04:42PM 60.3333 -155.3000 68° East 480 552 31,000  Level Anchorage Center
04:43PM 60.3833 -155.0500 76° East 480 552 31,000  Level Anchorage Center
04:44PM 60.4167 -154.7833 69° East 480 552 31,000  Level Anchorage Center
04:45PM 60.4667 -154.5167 75° East 480 552 31,000  Level Anchorage Center
04:46PM 60.5000 -154.2667 72° East 490 564 31,000  Level Anchorage Center
04:47PM 60.5500 -153.9500 76° East 490 564 31,000  Level Anchorage Center
04:48PM 60.5833 -153.6833 69° East 490 564 31,000  Level Anchorage Center
04:49PM 60.6333 -153.4167 82° East 480 552 31,000 -60 Level Anchorage Center
04:50PM 60.6500 -153.1667 69° East 480 552 30,900 -900 Descending Anchorage Center
04:51PM 60.7000 -152.9000 76° East 480 552 29,200 -2,580 Descending Anchorage Center
04:52PM 60.7333 -152.6333 75° East 480 552 25,700 -2,700 Descending Anchorage Center
04:53PM 60.7667 -152.3833 74° East 460 529 23,800 -1,920 Descending Anchorage Center
04:54PM 60.8000 -152.1500 74° East 430 495 21,900 -1,860 Descending Anchorage Center
04:55PM 60.8333 -151.9167 81° East 410 472 20,100 -1,680 Descending Anchorage Center
04:56PM 60.8500 -151.7000 68° East 410 472 18,600 -1,500 Descending Anchorage Center
05:03PM 61.1667 -149.9833 316° Northwest  Level FlightAware Approximate
05:04PM 61.2656 -150.1825 143° Southeast  Level Estimated
05:05PM 61.1667 -150.0301 64° Northeast  Level FlightAware Approximate
05:06PM 61.2262 -149.7721 245° Southwest  Level Estimated
05:07PM 61.1667 -150.0301 64° Northeast  Level Estimated
05:08PM 61.2262 -149.7721 245° Southwest  Level Estimated
05:09PM 61.1667 -150.0301 90° East  Level Estimated
05:10PM 61.1667 -149.9833 316° Northwest  Level FlightAware Approximate
05:11PM 61.2656 -150.1825 136° Southeast  Level Estimated
05:12PM 61.1667 -149.9833 316° Northwest  Level FlightAware Approximate
05:13PM 61.2656 -150.1825 136° Southeast  Level Estimated
05:14PM 61.1667 -149.9833 316° Northwest  Level FlightAware Approximate
05:15PM 61.2656 -150.1825 136° Southeast  Level Estimated
05:16PM 61.1667 -149.9833 316° Northwest  Level FlightAware Approximate
05:17PM 61.2656 -150.1825 136° Southeast  Level Estimated
05:18PM 61.1667 -149.9833 316° Northwest  Level FlightAware Approximate
05:19PM 61.2656 -150.1825 316° Northwest  Level Estimated